createdAt,value
2023-05-05T00:01:03.153Z,4.38
2023-05-05T00:03:30.018Z,2.90
2023-05-05T00:05:57.468Z,2.50
2023-05-05T00:08:26.733Z,2.38
2023-05-05T00:10:53.681Z,0.93
2023-05-05T00:13:21.690Z,1.00
2023-05-05T00:15:50.370Z,0.98
2023-05-05T00:18:18.060Z,1.17
2023-05-05T00:20:46.872Z,1.15
2023-05-05T00:23:14.410Z,1.40
2023-05-05T00:25:41.153Z,1.17
2023-05-05T00:28:07.950Z,0.90
2023-05-05T00:30:34.771Z,1.17
2023-05-05T00:33:01.937Z,1.38
2023-05-05T00:35:28.677Z,1.10
2023-05-05T00:37:57.641Z,1.33
2023-05-05T00:40:25.247Z,1.05
2023-05-05T00:42:52.731Z,1.10
2023-05-05T00:45:20.259Z,1.30
2023-05-05T00:47:52.766Z,1.00
2023-05-05T00:50:22.717Z,1.52
2023-05-05T00:52:49.852Z,1.10
2023-05-05T00:55:16.720Z,1.50
2023-05-05T00:57:44.468Z,1.08
2023-05-05T01:00:12.012Z,0.98
2023-05-05T01:02:40.201Z,1.40
2023-05-05T01:05:09.035Z,1.55
2023-05-05T01:07:53.970Z,0.98
2023-05-05T01:10:50.491Z,1.08
2023-05-05T01:13:37.420Z,1.30
2023-05-05T01:16:16.973Z,0.98
2023-05-05T01:19:05.392Z,1.20
2023-05-05T01:21:49.853Z,1.10
2023-05-05T01:24:39.312Z,1.10
2023-05-05T01:27:27.771Z,1.02
2023-05-05T01:30:08.907Z,1.10
2023-05-05T01:32:43.813Z,1.20
2023-05-05T01:35:18.502Z,1.10
2023-05-05T01:38:03.423Z,1.20
2023-05-05T01:40:39.069Z,1.33
2023-05-05T01:43:08.682Z,1.15
2023-05-05T01:45:40.005Z,1.30
2023-05-05T01:48:08.241Z,0.90
2023-05-05T01:50:37.039Z,1.23
2023-05-05T01:53:04.978Z,1.30
2023-05-05T01:55:36.693Z,1.25
2023-05-05T01:58:05.817Z,0.93
2023-05-05T02:00:35.854Z,1.10
2023-05-05T02:03:05.476Z,1.00
2023-05-05T02:05:38.813Z,1.10
2023-05-05T02:08:06.612Z,1.42
2023-05-05T02:10:34.546Z,1.38
2023-05-05T02:13:04.954Z,0.93
2023-05-05T02:15:33.742Z,1.20
2023-05-05T02:18:04.684Z,1.15
2023-05-05T02:20:35.239Z,1.23
2023-05-05T02:23:05.554Z,1.40
2023-05-05T02:25:53.184Z,1.60
2023-05-05T02:28:36.438Z,1.13
2023-05-05T02:31:08.628Z,0.98
2023-05-05T02:33:36.716Z,1.08
2023-05-05T02:36:19.209Z,0.98
2023-05-05T02:38:48.554Z,1.25
2023-05-05T02:41:18.774Z,1.00
2023-05-05T02:43:48.592Z,1.10
2023-05-05T02:46:15.812Z,1.13
2023-05-05T02:48:42.458Z,1.20
2023-05-05T02:51:09.045Z,1.38
2023-05-05T02:53:39.101Z,1.00
2023-05-05T02:56:14.861Z,1.10
2023-05-05T02:59:19.529Z,1.20
2023-05-05T03:02:06.581Z,1.30
2023-05-05T03:04:41.871Z,1.20
2023-05-05T03:07:37.966Z,1.20
2023-05-05T03:10:13.947Z,1.10
2023-05-05T03:12:54.643Z,1.17
2023-05-05T03:15:30.641Z,1.02
2023-05-05T03:17:59.100Z,1.48
2023-05-05T03:20:26.363Z,1.05
2023-05-05T03:22:53.223Z,1.67
2023-05-05T03:25:19.866Z,1.38
2023-05-05T03:27:46.512Z,1.10
2023-05-05T03:30:13.311Z,2.15
2023-05-05T03:32:39.850Z,1.38
2023-05-05T03:35:09.484Z,1.27
2023-05-05T03:37:39.661Z,0.93
2023-05-05T03:40:09.904Z,1.00
2023-05-05T03:42:37.896Z,1.20
2023-05-05T03:45:04.822Z,1.42
2023-05-05T03:47:31.546Z,1.25
2023-05-05T03:50:01.111Z,1.15
2023-05-05T03:52:27.673Z,1.30
2023-05-05T03:54:54.292Z,1.40
2023-05-05T03:57:20.923Z,1.10
2023-05-05T03:59:47.427Z,1.33
2023-05-05T04:02:13.967Z,1.30
2023-05-05T04:04:40.598Z,1.52
2023-05-05T04:07:09.381Z,1.33
2023-05-05T04:09:36.023Z,1.40
2023-05-05T04:12:03.136Z,1.25
2023-05-05T04:14:29.726Z,1.40
2023-05-05T04:16:56.234Z,0.80
2023-05-05T04:19:22.723Z,1.65
2023-05-05T04:21:50.407Z,1.20
2023-05-05T04:24:16.991Z,1.23
2023-05-05T04:26:43.552Z,1.15
2023-05-05T04:29:13.280Z,1.75
2023-05-05T04:31:43.204Z,1.45
2023-05-05T04:34:12.931Z,1.50
2023-05-05T04:36:42.806Z,1.80
2023-05-05T04:39:12.186Z,1.60
2023-05-05T04:41:40.973Z,1.70
2023-05-05T04:44:07.472Z,1.75
2023-05-05T04:46:34.973Z,1.42
2023-05-05T04:49:03.378Z,1.25
2023-05-05T04:51:29.935Z,1.38
2023-05-05T04:53:56.478Z,1.35
2023-05-05T04:56:23.071Z,1.25
2023-05-05T04:58:50.266Z,1.40
2023-05-05T05:01:16.868Z,1.40
2023-05-05T05:03:43.569Z,2.15
2023-05-05T05:06:12.389Z,1.27
2023-05-05T05:08:38.949Z,1.40
2023-05-05T05:11:05.503Z,1.63
2023-05-05T05:13:32.452Z,2.05
2023-05-05T05:15:59.043Z,1.63
2023-05-05T05:18:25.648Z,1.40
2023-05-05T05:20:52.260Z,1.90
2023-05-05T05:23:18.755Z,1.88
2023-05-05T05:25:46.002Z,1.67
2023-05-05T05:28:15.902Z,1.30
2023-05-05T05:30:46.207Z,2.00
2023-05-05T05:33:15.655Z,1.50
2023-05-05T05:35:46.055Z,1.45
2023-05-05T05:38:17.604Z,1.17
2023-05-05T05:40:49.172Z,1.92
2023-05-05T05:43:15.799Z,1.95
2023-05-05T05:45:45.713Z,1.80
2023-05-05T05:48:13.460Z,1.33
2023-05-05T05:50:40.023Z,1.27
2023-05-05T05:53:06.800Z,1.95
2023-05-05T05:55:33.363Z,1.65
2023-05-05T05:58:00.220Z,1.73
2023-05-05T06:00:27.144Z,1.88
2023-05-05T06:02:53.701Z,1.73
2023-05-05T06:05:20.281Z,1.98
2023-05-05T06:07:46.772Z,2.50
2023-05-05T06:10:27.485Z,2.20
2023-05-05T06:12:55.322Z,2.50
2023-05-05T06:15:21.940Z,2.05
2023-05-05T06:17:48.618Z,2.38
2023-05-05T06:20:15.340Z,1.80
2023-05-05T06:22:44.970Z,1.98
2023-05-05T06:25:14.471Z,1.70
2023-05-05T06:27:43.235Z,2.08
2023-05-05T06:30:12.416Z,1.73
2023-05-05T06:32:39.318Z,1.85
2023-05-05T06:35:07.239Z,1.63
2023-05-05T06:37:34.021Z,1.95
2023-05-05T06:40:00.971Z,2.33
2023-05-05T06:42:27.502Z,2.13
2023-05-05T06:44:54.006Z,1.88
2023-05-05T06:47:20.728Z,2.50
2023-05-05T06:49:47.247Z,2.17
2023-05-05T06:52:13.852Z,2.15
2023-05-05T06:54:41.625Z,1.85
2023-05-05T06:57:08.061Z,1.95
2023-05-05T06:59:34.541Z,2.65
2023-05-05T07:02:01.053Z,2.38
2023-05-05T07:04:27.590Z,1.88
2023-05-05T07:06:55.440Z,2.42
2023-05-05T07:09:22.308Z,1.95
2023-05-05T07:11:49.209Z,2.03
2023-05-05T07:14:16.090Z,1.77
2023-05-05T07:16:46.636Z,1.90
2023-05-05T07:19:17.716Z,2.00
2023-05-05T07:24:15.272Z,1.80
2023-05-05T07:26:44.651Z,1.80
2023-05-05T07:29:11.692Z,1.90
2023-05-05T07:31:38.750Z,1.75
2023-05-05T07:34:05.622Z,1.80
2023-05-05T07:36:32.946Z,1.88
2023-05-05T07:39:00.620Z,1.98
2023-05-05T07:41:27.609Z,1.20
2023-05-05T07:43:54.415Z,1.38
2023-05-05T07:46:21.247Z,1.80
2023-05-05T07:48:48.185Z,1.58
2023-05-05T07:51:18.678Z,1.30
2023-05-05T07:53:48.120Z,1.30
2023-05-05T07:56:18.148Z,1.27
2023-05-05T07:58:48.519Z,1.48
2023-05-05T08:01:18.366Z,1.70
2023-05-05T08:03:47.534Z,1.20
2023-05-05T08:06:22.159Z,1.77
2023-05-05T08:08:50.417Z,1.42
2023-05-05T08:11:20.557Z,1.55
2023-05-05T08:13:48.624Z,1.00
2023-05-05T08:16:17.215Z,1.70
2023-05-05T08:18:43.943Z,1.20
2023-05-05T08:21:11.236Z,1.50
2023-05-05T08:23:39.053Z,3.63
2023-05-05T08:26:09.014Z,7.57
2023-05-05T08:28:39.497Z,3.80
2023-05-05T08:31:06.959Z,1.20
2023-05-05T08:33:33.639Z,1.30
2023-05-05T08:36:00.493Z,1.60
2023-05-05T08:38:27.274Z,1.08
2023-05-05T08:40:53.792Z,0.77
2023-05-05T08:43:22.976Z,1.77
2023-05-05T08:45:51.821Z,1.55
2023-05-05T08:48:22.819Z,1.52
2023-05-05T08:51:00.820Z,1.40
2023-05-05T08:53:34.940Z,1.38
2023-05-05T08:56:04.477Z,1.60
2023-05-05T08:58:31.634Z,2.13
2023-05-05T09:00:58.724Z,1.77
2023-05-05T09:03:27.307Z,1.52
2023-05-05T09:05:54.488Z,1.40
2023-05-05T09:08:21.576Z,2.15
2023-05-05T09:10:51.687Z,1.52
2023-05-05T09:13:19.299Z,1.40
2023-05-05T09:15:50.601Z,1.85
2023-05-05T09:18:20.207Z,1.23
2023-05-05T09:20:50.185Z,1.85
2023-05-05T09:23:21.462Z,2.80
2023-05-05T09:26:03.763Z,6.13
2023-05-05T09:28:30.516Z,7.47
2023-05-05T09:31:19.481Z,2.22
2023-05-05T09:33:48.593Z,1.92
2023-05-05T09:36:15.132Z,0.95
2023-05-05T09:38:41.615Z,1.60
2023-05-05T09:41:08.077Z,1.00
2023-05-05T09:43:54.795Z,2.40
2023-05-05T09:46:24.180Z,1.50
2023-05-05T09:48:50.822Z,1.52
2023-05-05T09:51:29.355Z,2.15
2023-05-05T09:53:55.934Z,1.13
2023-05-05T09:56:37.764Z,1.25
2023-05-05T09:59:11.918Z,1.10
2023-05-05T10:01:43.682Z,1.30
2023-05-05T10:04:26.828Z,1.52
2023-05-05T10:06:55.872Z,1.27
2023-05-05T10:09:26.244Z,1.27
2023-05-05T10:11:56.233Z,1.08
2023-05-05T10:14:24.197Z,1.92
2023-05-05T10:16:53.142Z,1.70
2023-05-05T10:19:21.734Z,2.03
2023-05-05T10:21:53.447Z,1.73
2023-05-05T10:24:39.314Z,1.20
2023-05-05T10:27:26.082Z,3.25
2023-05-05T10:30:02.189Z,6.95
2023-05-05T10:35:26.393Z,3.35
2023-05-05T10:37:54.505Z,4.55
2023-05-05T10:40:22.791Z,1.20
2023-05-05T10:42:54.522Z,1.15
2023-05-05T10:45:21.368Z,0.82
2023-05-05T10:47:54.041Z,1.73
2023-05-05T10:50:50.083Z,1.58
2023-05-05T10:53:28.957Z,1.40
2023-05-05T10:56:16.037Z,1.50
2023-05-05T10:58:58.319Z,1.20
2023-05-05T11:01:33.626Z,1.13
2023-05-05T11:04:36.106Z,1.17
2023-05-05T11:07:09.805Z,1.10
2023-05-05T11:09:58.535Z,3.88
2023-05-05T11:12:25.502Z,6.40
2023-05-05T11:15:26.438Z,2.95
2023-05-05T11:18:05.795Z,3.40
2023-05-05T11:20:37.193Z,0.93
2023-05-05T11:23:03.722Z,1.23
2023-05-05T11:25:36.955Z,1.08
2023-05-05T11:28:11.762Z,1.38
2023-05-05T11:30:57.571Z,1.15
2023-05-05T11:33:25.727Z,0.90
2023-05-05T11:36:06.059Z,1.15
2023-05-05T11:38:39.391Z,1.38
2023-05-05T11:41:25.812Z,4.13
2023-05-05T11:44:29.437Z,4.13
2023-05-05T11:47:01.994Z,4.40
2023-05-05T11:49:30.529Z,4.28
2023-05-05T11:52:07.156Z,4.25
2023-05-05T11:54:42.090Z,3.78
2023-05-05T11:57:09.190Z,1.08
2023-05-05T11:59:37.468Z,2.70
2023-05-05T12:02:04.732Z,1.15
2023-05-05T12:04:32.391Z,1.00
2023-05-05T12:07:00.047Z,1.00
2023-05-05T12:09:27.423Z,0.90
2023-05-05T12:11:56.642Z,1.40
2023-05-05T12:14:26.344Z,0.65
2023-05-05T12:16:57.104Z,1.10
2023-05-05T12:19:30.366Z,4.20
2023-05-05T12:21:57.690Z,3.80
2023-05-05T12:24:25.821Z,4.20
2023-05-05T12:26:55.006Z,4.25
2023-05-05T12:29:29.438Z,3.95
2023-05-05T12:31:57.944Z,3.83
2023-05-05T12:34:27.400Z,3.45
2023-05-05T12:36:57.335Z,3.80
2023-05-05T12:39:34.019Z,3.40
2023-05-05T12:42:07.109Z,3.63
2023-05-05T12:44:40.785Z,3.67
2023-05-05T12:47:07.484Z,3.30
2023-05-05T12:49:51.347Z,3.47
2023-05-05T12:52:18.531Z,3.40
2023-05-05T12:54:55.995Z,3.60
2023-05-05T12:57:23.316Z,3.35
2023-05-05T12:59:51.052Z,3.63
2023-05-05T13:02:17.710Z,3.35
2023-05-05T13:04:56.984Z,4.10
2023-05-05T13:07:24.074Z,4.18
2023-05-05T13:09:51.018Z,3.80
2023-05-05T13:12:18.428Z,3.45
2023-05-05T13:14:45.517Z,3.67
2023-05-05T13:17:13.044Z,3.60
2023-05-05T13:19:46.114Z,3.60
2023-05-05T13:22:13.604Z,3.80
2023-05-05T13:24:50.850Z,3.50
2023-05-05T13:27:19.963Z,3.40
2023-05-05T13:29:46.758Z,3.58
2023-05-05T13:32:13.362Z,3.30
2023-05-05T13:34:39.999Z,3.30
2023-05-05T13:37:06.724Z,3.42
2023-05-05T13:39:33.401Z,3.50
2023-05-05T13:41:59.915Z,3.53
2023-05-05T13:44:28.910Z,3.38
2023-05-05T13:46:55.501Z,4.30
2023-05-05T13:49:22.114Z,4.00
2023-05-05T13:51:48.746Z,4.28
2023-05-05T13:54:15.339Z,4.10
2023-05-05T13:56:41.940Z,3.80
2023-05-05T13:59:09.288Z,4.00
2023-05-05T14:01:36.009Z,4.07
2023-05-05T14:04:05.129Z,4.10
2023-05-05T14:06:32.714Z,4.10
2023-05-05T14:09:05.879Z,4.40
2023-05-05T14:11:32.907Z,4.20
2023-05-05T14:14:03.155Z,4.20
2023-05-05T14:16:30.707Z,4.20
2023-05-05T14:18:57.326Z,4.10
2023-05-05T14:21:23.940Z,3.60
2023-05-05T14:23:50.719Z,3.92
2023-05-05T14:26:17.752Z,3.90
2023-05-05T14:28:44.648Z,3.70
2023-05-05T14:31:11.351Z,3.95
2023-05-05T14:33:38.029Z,4.15
2023-05-05T14:36:04.843Z,3.85
2023-05-05T14:38:31.382Z,4.20
2023-05-05T14:41:03.913Z,4.10
2023-05-05T14:43:32.392Z,4.13
2023-05-05T14:46:06.956Z,4.13
2023-05-05T14:48:34.704Z,3.25
2023-05-05T14:51:01.360Z,3.45
2023-05-05T14:53:29.949Z,3.50
2023-05-05T14:55:56.769Z,3.60
2023-05-05T14:58:24.752Z,3.40
2023-05-05T15:00:52.989Z,3.17
2023-05-05T15:03:19.617Z,3.00
2023-05-05T15:05:46.103Z,3.10
2023-05-05T15:08:14.449Z,3.13
2023-05-05T15:10:41.418Z,3.42
2023-05-05T15:13:08.027Z,3.33
2023-05-05T15:15:34.505Z,3.63
2023-05-05T15:18:04.378Z,3.47
2023-05-05T15:20:34.371Z,3.50
2023-05-05T15:23:04.467Z,3.60
2023-05-05T15:25:31.912Z,3.60
2023-05-05T15:28:04.131Z,3.03
2023-05-05T15:30:35.491Z,3.75
2023-05-05T15:33:02.325Z,3.00
2023-05-05T15:35:33.849Z,3.10
2023-05-05T15:38:03.409Z,2.90
2023-05-05T15:40:32.308Z,3.42
2023-05-05T15:42:58.832Z,3.22
2023-05-05T15:45:25.502Z,3.28
2023-05-05T15:47:53.869Z,3.10
2023-05-05T15:50:21.130Z,3.25
2023-05-05T15:52:49.913Z,3.03
2023-05-05T15:55:17.432Z,3.00
2023-05-05T15:57:44.216Z,3.40
2023-05-05T16:00:11.151Z,2.90
2023-05-05T16:02:37.739Z,3.10
2023-05-05T16:05:04.881Z,3.40
2023-05-05T16:07:34.032Z,3.30
2023-05-05T16:10:02.135Z,3.30
2023-05-05T16:12:28.759Z,2.88
2023-05-05T16:14:55.763Z,3.20
2023-05-05T16:17:22.814Z,3.50
2023-05-05T16:19:49.397Z,3.17
2023-05-05T16:22:15.989Z,3.38
2023-05-05T16:24:44.365Z,3.10
2023-05-05T16:27:11.204Z,3.20
2023-05-05T16:29:37.711Z,3.40
2023-05-05T16:32:06.629Z,3.63
2023-05-05T16:34:33.187Z,3.60
2023-05-05T16:37:01.985Z,3.55
2023-05-05T16:39:28.510Z,3.40
2023-05-05T16:41:55.066Z,3.72
2023-05-05T16:44:21.714Z,3.45
2023-05-05T16:46:48.245Z,3.90
2023-05-05T16:49:14.813Z,3.45
2023-05-05T16:51:41.396Z,3.60
2023-05-05T16:54:07.903Z,3.85
2023-05-05T16:56:35.127Z,4.00
2023-05-05T16:59:04.384Z,3.58
2023-05-05T17:01:34.978Z,3.85
2023-05-05T17:04:08.008Z,3.60
2023-05-05T17:06:34.602Z,3.83
2023-05-05T17:09:06.242Z,3.70
2023-05-05T17:11:32.918Z,3.47
2023-05-05T17:14:03.475Z,3.80
2023-05-05T17:16:32.359Z,3.30
2023-05-05T17:18:58.911Z,3.40
2023-05-05T17:21:25.752Z,4.10
2023-05-05T17:23:52.323Z,3.75
2023-05-05T17:26:18.844Z,3.35
2023-05-05T17:28:45.439Z,3.78
2023-05-05T17:31:12.655Z,3.50
2023-05-05T17:33:39.329Z,3.30
2023-05-05T17:36:06.973Z,3.55
2023-05-05T17:38:33.858Z,3.80
2023-05-05T17:41:03.714Z,3.50
2023-05-05T17:43:32.981Z,3.78
2023-05-05T17:46:03.391Z,3.53
2023-05-05T17:48:35.793Z,3.67
2023-05-05T17:51:05.584Z,3.50
2023-05-05T17:53:33.766Z,4.68
2023-05-05T17:56:02.785Z,3.65
2023-05-05T17:58:36.633Z,3.40
2023-05-05T18:01:06.657Z,3.35
2023-05-05T18:03:37.279Z,3.60
2023-05-05T18:06:05.917Z,3.42
2023-05-05T18:08:36.034Z,3.50
2023-05-05T18:11:08.537Z,3.20
2023-05-05T18:13:35.669Z,3.35
2023-05-05T18:16:05.600Z,3.30
2023-05-05T18:18:35.505Z,3.17
2023-05-05T18:21:05.261Z,3.30
2023-05-05T18:23:36.235Z,3.30
2023-05-05T18:26:05.737Z,3.30
2023-05-05T18:28:37.769Z,3.17
2023-05-05T20:11:48.963Z,3.80
2023-05-05T20:14:41.226Z,3.80
2023-05-05T20:17:19.901Z,3.05
2023-05-05T20:19:49.575Z,3.63
2023-05-05T20:22:21.006Z,3.55
2023-05-05T20:27:22.975Z,3.53
2023-05-05T20:29:49.801Z,3.42
2023-05-05T20:41:09.237Z,3.70
2023-05-05T20:44:09.410Z,3.55
2023-05-05T20:47:37.734Z,3.50
2023-05-05T21:14:45.797Z,4.40
2023-05-05T21:17:16.604Z,3.60
2023-05-05T21:19:43.478Z,4.00
2023-05-05T21:22:23.229Z,4.07
2023-05-05T21:24:50.086Z,3.90
2023-05-05T21:27:19.971Z,3.85
2023-05-05T21:29:51.086Z,4.07
2023-05-05T21:32:17.973Z,3.63
2023-05-05T21:34:51.248Z,3.50
2023-05-05T21:37:20.185Z,3.80
2023-05-05T21:39:46.872Z,3.85
2023-05-05T21:42:13.562Z,3.50
2023-05-05T22:18:55.792Z,1.95
2023-05-05T22:41:26.207Z,1.90
2023-05-05T22:43:54.026Z,1.80
2023-05-05T22:46:21.038Z,1.95
2023-05-05T22:48:48.129Z,2.10
2023-05-05T22:51:14.933Z,1.70
2023-05-05T22:53:41.966Z,1.77
2023-05-05T22:56:08.665Z,1.63
2023-05-05T22:58:38.402Z,1.85
2023-05-05T23:01:07.357Z,1.88
2023-05-05T23:03:34.188Z,1.67
2023-05-05T23:06:01.039Z,1.38
2023-05-05T23:08:27.686Z,1.70
2023-05-05T23:10:54.423Z,1.65
2023-05-05T23:13:21.161Z,1.73
2023-05-05T23:15:47.812Z,1.20
2023-05-05T23:18:14.447Z,1.60
2023-05-05T23:20:41.297Z,1.17
2023-05-05T23:23:10.980Z,0.88
2023-05-05T23:25:40.904Z,1.10
2023-05-05T23:28:10.148Z,2.72
2023-05-05T23:30:36.975Z,1.52
2023-05-05T23:33:04.583Z,1.08
2023-05-05T23:35:31.214Z,1.20
2023-05-05T23:37:57.857Z,1.67
2023-05-05T23:40:24.429Z,2.47
2023-05-05T23:42:51.087Z,1.02
2023-05-05T23:45:19.342Z,1.52
2023-05-05T23:47:46.286Z,1.63
2023-05-05T23:50:12.930Z,1.20
2023-05-05T23:52:42.677Z,1.17
2023-05-05T23:55:10.824Z,1.08
2023-05-05T23:57:37.780Z,1.17
